Time;durP1;ratioP1;P1;durP2;ratioP2;P2;SDS_P1;SDS_P2;PMS_P1;PMS_P2;Temp;Humidity;BMP_temperature;BMP_pressure;BME280_temperature;BME280_humidity;BME280_pressure;Samples;Min_cycle;Max_cycle;Signal;HPM_P1;HPM_P2
2021/10/21 00:00:24;;;;;;;13.88;9.25;;;;;;;12.12;52.07;99154.51;1694667;84;21088;-38
2021/10/21 00:02:50;;;;;;;14.05;9.13;;;;;;;12.10;52.15;99165.56;1694981;84;21295;-37
2021/10/21 00:05:17;;;;;;;19.10;9.45;;;;;;;12.06;52.27;99157.93;1694618;84;21071;-38
2021/10/21 00:07:44;;;;;;;15.03;9.03;;;;;;;12.03;52.33;99161.41;1694804;83;21551;-38
2021/10/21 00:10:10;;;;;;;12.60;8.78;;;;;;;12.00;52.39;99151.30;1694831;84;21065;-38
2021/10/21 00:12:37;;;;;;;16.12;9.55;;;;;;;11.97;52.52;99153.38;1694776;84;21194;-38
2021/10/21 00:15:06;;;;;;;12.55;9.05;;;;;;;11.97;52.53;99143.88;1694693;84;21583;-38
2021/10/21 00:17:33;;;;;;;;;;;;;;;11.95;52.56;99140.77;1697242;84;21080;-38
2021/10/21 00:20:00;;;;;;;15.05;9.23;;;;;;;11.95;52.56;99137.47;1694668;84;20155;-37
2021/10/21 00:22:27;;;;;;;16.15;10.13;;;;;;;11.85;52.81;99144.94;1694659;84;21578;-38
2021/10/21 00:24:53;;;;;;;15.83;9.53;;;;;;;11.87;52.80;99135.04;1689035;84;21212;-38
2021/10/21 00:27:22;;;;;;;13.40;9.60;;;;;;;11.89;52.85;99138.17;1694904;84;21064;-38
2021/10/21 00:29:49;;;;;;;13.80;9.35;;;;;;;11.89;52.84;99134.09;1695230;84;21093;-38
2021/10/21 00:32:16;;;;;;;16.25;9.55;;;;;;;11.88;52.85;99124.38;1694983;84;21566;-38
2021/10/21 00:34:42;;;;;;;17.37;9.40;;;;;;;11.84;52.97;99126.29;1695076;84;22085;-38
2021/10/21 00:37:09;;;;;;;13.75;9.48;;;;;;;11.82;53.00;99123.94;1695136;84;21126;-38
2021/10/21 00:39:35;;;;;;;13.68;8.85;;;;;;;11.80;53.08;99117.33;1695076;84;21013;-38
2021/10/21 00:42:03;;;;;;;16.73;10.03;;;;;;;11.79;53.13;99119.84;1695345;84;21593;-38
2021/10/21 00:44:29;;;;;;;16.55;10.05;;;;;;;11.76;53.20;99113.23;1694925;84;21574;-38
2021/10/21 00:46:57;;;;;;;18.98;10.25;;;;;;;11.73;53.33;99107.16;1695278;84;21068;-38
2021/10/21 00:49:24;;;;;;;16.15;9.73;;;;;;;11.70;53.39;99102.46;1694778;84;21127;-38
2021/10/21 00:51:52;;;;;;;17.30;10.55;;;;;;;11.66;53.56;99107.86;1694756;84;21060;-38
2021/10/21 00:54:18;;;;;;;14.85;9.65;;;;;;;11.61;53.66;99101.41;1694878;84;21124;-38
2021/10/21 00:56:45;;;;;;;13.50;9.65;;;;;;;11.57;53.75;99095.13;1665003;84;21539;-38
2021/10/21 00:59:12;;;;;;;14.53;9.98;;;;;;;11.54;53.87;99090.46;1694831;84;21065;-38
2021/10/21 01:01:39;;;;;;;20.77;9.50;;;;;;;11.50;53.91;99081.50;1694904;84;21784;-38
2021/10/21 01:04:06;;;;;;;19.95;9.63;;;;;;;11.48;54.04;99082.44;1694582;84;20965;-38
2021/10/21 01:06:34;;;;;;;14.20;10.00;;;;;;;11.44;54.19;99076.20;1694737;84;21080;-37
2021/10/21 01:09:01;;;;;;;16.50;9.88;;;;;;;11.40;54.32;99078.09;1676399;84;21016;-38
2021/10/21 01:11:28;;;;;;;17.62;10.32;;;;;;;11.38;54.43;99071.46;1667176;84;21093;-38
2021/10/21 01:13:55;;;;;;;16.17;10.25;;;;;;;11.34;54.52;99071.43;1666947;86;21132;-38
2021/10/21 01:16:21;;;;;;;16.45;9.78;;;;;;;11.31;54.67;99065.40;1666713;86;21029;-38
2021/10/21 01:18:48;;;;;;;19.07;10.55;;;;;;;11.29;54.67;99072.55;1666974;86;21722;-38
2021/10/21 01:21:15;;;;;;;15.08;10.00;;;;;;;11.28;54.79;99075.62;1666741;86;21048;-38
2021/10/21 01:23:42;;;;;;;15.40;8.98;;;;;;;11.25;54.86;99074.44;1666853;85;21120;-38
2021/10/21 01:26:13;;;;;;;17.65;10.08;;;;;;;11.24;54.96;99074.23;1666984;86;21130;-38
2021/10/21 01:28:42;;;;;;;21.40;9.85;;;;;;;11.24;54.99;99070.73;1666847;86;21060;-38
2021/10/21 01:31:09;;;;;;;16.75;9.83;;;;;;;11.22;55.07;99063.55;1666836;86;21056;-37
2021/10/21 01:33:36;;;;;;;15.95;9.68;;;;;;;11.19;55.06;99058.85;1666744;86;21049;-38
2021/10/21 01:36:04;;;;;;;16.82;10.18;;;;;;;11.19;55.12;99054.78;1666986;85;21878;-38
2021/10/21 01:38:30;;;;;;;13.55;9.65;;;;;;;11.16;55.25;99051.46;1666886;86;21154;-38
2021/10/21 01:40:57;;;;;;;16.25;10.55;;;;;;;11.10;55.33;99048.29;1666945;86;21579;-38
2021/10/21 01:43:24;;;;;;;18.15;9.45;;;;;;;11.07;55.43;99039.55;1666823;86;21524;-37
2021/10/21 01:45:53;;;;;;;14.98;10.25;;;;;;;11.04;55.71;99039.48;1666917;86;21001;-38
2021/10/21 01:48:20;;;;;;;19.17;10.72;;;;;;;11.00;55.81;99039.45;1667015;86;21579;-38
2021/10/21 01:50:47;;;;;;;18.17;9.90;;;;;;;10.97;55.89;99040.20;1672656;84;21896;-38
2021/10/21 01:53:13;;;;;;;15.53;9.85;;;;;;;10.98;55.91;99040.98;1695038;84;21115;-38
2021/10/21 01:55:42;;;;;;;19.27;11.48;;;;;;;10.98;55.94;99036.91;1694650;84;21688;-38
2021/10/21 01:58:09;;;;;;;14.98;9.88;;;;;;;10.97;56.01;99035.34;1694736;84;21047;-38
2021/10/21 02:00:35;;;;;;;15.30;9.65;;;;;;;10.97;56.09;99035.34;1694810;84;21542;-38
2021/10/21 02:03:02;;;;;;;17.07;10.45;;;;;;;10.95;56.07;99028.92;1695051;84;21064;-38
2021/10/21 02:05:29;;;;;;;15.23;10.00;;;;;;;10.94;56.13;99030.67;1694650;84;21056;-38
2021/10/21 02:07:56;;;;;;;15.32;10.23;;;;;;;10.92;56.18;99032.95;1694922;84;21579;-38
2021/10/21 02:10:22;;;;;;;18.25;10.10;;;;;;;10.90;56.31;99026.54;1694723;84;21382;-38
2021/10/21 02:12:50;;;;;;;15.58;9.73;;;;;;;10.88;56.32;99027.50;1694843;84;21511;-38
2021/10/21 02:15:17;;;;;;;17.05;9.85;;;;;;;10.85;56.39;99028.22;1694808;84;22318;-38
2021/10/21 02:17:45;;;;;;;13.08;9.00;;;;;;;10.83;56.46;99031.89;1694817;84;20969;-38
2021/10/21 02:20:12;;;;;;;16.40;10.32;;;;;;;10.80;56.59;99044.81;1694833;84;21367;-38
2021/10/21 02:22:40;;;;;;;16.50;9.65;;;;;;;10.75;56.65;99037.00;1694604;84;21060;-38
2021/10/21 02:25:08;;;;;;;13.83;9.73;;;;;;;10.72;56.81;99029.61;1694791;84;21072;-38
2021/10/21 02:27:36;;;;;;;13.95;9.75;;;;;;;10.67;56.90;99019.88;1694851;84;21136;-38
2021/10/21 02:30:05;;;;;;;17.37;9.83;;;;;;;10.65;57.03;99033.00;1694758;84;21026;-38
2021/10/21 02:32:32;;;;;;;13.90;9.75;;;;;;;10.62;57.09;99034.31;1695090;84;21065;-38
2021/10/21 02:34:58;;;;;;;17.52;9.55;;;;;;;10.59;57.17;99031.00;1694705;84;21010;-37
2021/10/21 02:37:25;;;;;;;17.92;10.25;;;;;;;10.56;57.28;99031.14;1694642;84;21077;-38
2021/10/21 02:39:51;;;;;;;16.45;9.98;;;;;;;10.54;57.35;99025.33;1694964;84;21146;-38
2021/10/21 02:42:18;;;;;;;15.98;9.63;;;;;;;10.51;57.44;99024.69;1695098;84;21528;-38
2021/10/21 02:44:44;;;;;;;14.87;9.15;;;;;;;10.49;57.53;99021.58;1694953;84;21017;-37
2021/10/21 02:47:10;;;;;;;16.70;10.05;;;;;;;10.46;57.63;99019.58;1695090;84;21045;-38
2021/10/21 02:49:37;;;;;;;15.75;10.32;;;;;;;10.42;57.64;99014.69;1695019;84;21539;-38
2021/10/21 02:52:05;;;;;;;18.35;10.43;;;;;;;10.40;57.72;99011.02;1695268;84;21041;-37
2021/10/21 02:54:33;;;;;;;16.02;10.13;;;;;;;10.36;57.84;99013.47;1694708;84;21105;-37
2021/10/21 02:56:59;;;;;;;18.73;10.53;;;;;;;10.31;57.98;99009.71;1694942;84;21008;-37
2021/10/21 02:59:26;;;;;;;15.83;10.63;;;;;;;10.27;58.00;99004.80;1694773;84;21512;-37
2021/10/21 03:01:52;;;;;;;18.05;10.68;;;;;;;10.26;58.16;99005.97;1695015;84;21116;-38
2021/10/21 03:04:19;;;;;;;15.55;10.13;;;;;;;10.23;58.19;99010.17;1694651;84;21140;-38
2021/10/21 03:06:46;;;;;;;19.45;10.38;;;;;;;10.21;58.20;99004.92;1690376;83;21068;-38
2021/10/21 03:09:12;;;;;;;16.97;10.48;;;;;;;10.19;58.31;99010.70;1709911;83;21579;-38
2021/10/21 03:11:40;;;;;;;14.33;10.70;;;;;;;10.17;58.42;99005.42;1700194;84;21060;-38
2021/10/21 03:14:09;;;;;;;14.55;9.98;;;;;;;10.13;58.61;98997.79;1709989;83;21072;-38
2021/10/21 03:16:38;;;;;;;21.12;10.32;;;;;;;10.09;58.65;98996.96;1681185;85;21158;-37
2021/10/21 03:19:05;;;;;;;14.20;10.00;;;;;;;10.04;58.75;98988.01;1700320;84;21030;-38
2021/10/21 03:21:32;;;;;;;16.15;10.18;;;;;;;10.01;58.85;98990.09;1709761;83;21472;-38
2021/10/21 03:23:59;;;;;;;16.02;10.08;;;;;;;10.02;58.84;98984.11;1700116;84;21558;-37
2021/10/21 03:26:26;;;;;;;15.08;10.23;;;;;;;10.02;58.90;98982.16;1709789;83;21092;-37
2021/10/21 03:28:53;;;;;;;18.57;9.63;;;;;;;10.00;58.96;98976.34;1681472;85;21129;-37
2021/10/21 03:31:20;;;;;;;18.77;10.15;;;;;;;10.01;59.01;98972.50;1700122;84;20977;-37
2021/10/21 03:33:46;;;;;;;14.73;10.15;;;;;;;10.00;59.05;98962.02;1684563;85;20958;-38
2021/10/21 03:36:13;;;;;;;19.07;10.15;;;;;;;10.01;59.02;98961.66;1709983;83;21025;-38
2021/10/21 03:38:40;;;;;;;15.53;9.03;;;;;;;10.02;59.03;98959.74;1700142;84;21076;-38
2021/10/21 03:41:06;;;;;;;14.35;9.63;;;;;;;10.09;58.99;98950.92;1709884;83;21032;-38
2021/10/21 03:43:33;;;;;;;15.38;10.35;;;;;;;10.15;58.77;98946.75;1700199;84;21021;-37
2021/10/21 03:46:00;;;;;;;16.07;9.88;;;;;;;10.16;58.74;98947.00;1710044;83;21000;-38
2021/10/21 03:48:27;;;;;;;18.20;10.28;;;;;;;10.17;58.65;98949.31;1700435;84;21550;-38
2021/10/21 03:50:53;;;;;;;15.35;9.40;;;;;;;10.17;58.63;98945.25;1710163;83;21033;-38
2021/10/21 03:53:20;;;;;;;14.30;9.63;;;;;;;10.17;58.58;98947.18;1700312;84;21129;-37
2021/10/21 03:55:47;;;;;;;14.20;9.60;;;;;;;10.17;58.58;98941.77;1710005;83;21040;-37
2021/10/21 03:58:15;;;;;;;13.88;10.53;;;;;;;10.12;58.68;98935.30;1700508;84;21108;-37
2021/10/21 04:00:42;;;;;;;12.55;9.30;;;;;;;10.08;58.87;98935.23;1709959;83;21056;-38
2021/10/21 04:03:08;;;;;;;16.37;10.15;;;;;;;10.04;59.01;98941.18;1700207;84;21112;-38
2021/10/21 04:05:36;;;;;;;12.88;9.58;;;;;;;9.98;59.20;98930.45;1709801;83;21141;-37
2021/10/21 04:08:04;;;;;;;14.28;9.55;;;;;;;9.93;59.26;98928.84;1708450;83;21360;-38
2021/10/21 04:10:31;;;;;;;16.77;10.13;;;;;;;9.91;59.43;98927.09;1715585;83;21600;-38
2021/10/21 04:12:59;;;;;;;15.78;10.90;;;;;;;9.90;59.49;98929.58;1715755;83;21002;-38
2021/10/21 04:15:26;;;;;;;16.95;10.20;;;;;;;9.88;59.66;98917.53;1715806;83;21047;-37
2021/10/21 04:17:54;;;;;;;15.53;10.28;;;;;;;9.85;59.71;98921.77;1716064;83;21165;-38
2021/10/21 04:22:32;;;;;;;12.68;9.35;;;;;;;9.88;59.74;98925.66;1788193;79;22584;-37
2021/10/21 04:25:00;;;;;;;15.78;9.88;;;;;;;9.81;59.80;98922.30;1756340;81;20988;-37
2021/10/21 04:27:27;;;;;;;15.93;10.05;;;;;;;9.90;59.68;98920.10;1762480;81;21143;-37
2021/10/21 04:29:54;;;;;;;15.65;9.83;;;;;;;9.95;59.53;98922.50;1762625;81;21512;-37
2021/10/21 04:32:20;;;;;;;14.93;9.90;;;;;;;9.96;59.53;98920.00;1762824;81;20962;-37
2021/10/21 04:34:47;;;;;;;14.50;10.23;;;;;;;9.97;59.44;98922.89;1762746;81;21547;-38
2021/10/21 04:37:13;;;;;;;13.75;10.30;;;;;;;9.97;59.41;98927.56;1762813;81;21013;-37
2021/10/21 04:39:40;;;;;;;15.35;10.38;;;;;;;9.95;59.45;98923.84;1762658;81;21117;-37
2021/10/21 04:42:06;;;;;;;14.03;10.28;;;;;;;9.95;59.45;98924.42;1762740;81;20993;-37
2021/10/21 04:44:33;;;;;;;16.07;11.15;;;;;;;9.93;59.47;98926.13;1762583;81;21010;-37
2021/10/21 04:47:00;;;;;;;17.62;10.18;;;;;;;9.91;59.50;98923.02;1762898;81;21006;-37
2021/10/21 04:49:27;;;;;;;15.48;10.90;;;;;;;9.89;59.57;98926.66;1762987;81;21361;-37
2021/10/21 04:51:54;;;;;;;17.70;11.53;;;;;;;9.85;59.72;98916.35;1758914;80;21142;-36
2021/10/21 04:54:21;;;;;;;16.45;11.33;;;;;;;9.82;59.85;98917.66;1756940;81;21001;-37
2021/10/21 04:56:47;;;;;;;14.85;10.63;;;;;;;9.77;59.94;98917.97;1757109;81;21028;-37
2021/10/21 04:59:14;;;;;;;21.45;11.50;;;;;;;9.73;60.06;98911.13;1757297;81;20960;-37
2021/10/21 05:01:41;;;;;;;16.42;11.30;;;;;;;9.73;60.20;98917.90;1756818;81;21079;-37
2021/10/21 05:04:09;;;;;;;18.05;11.83;;;;;;;9.71;60.26;98920.20;1756754;81;21123;-36
2021/10/21 05:06:36;;;;;;;13.32;10.10;;;;;;;9.74;60.30;98922.17;1756773;81;21012;-37
2021/10/21 05:09:02;;;;;;;18.65;10.63;;;;;;;9.80;60.26;98918.59;1756950;81;20955;-37
2021/10/21 05:11:30;;;;;;;23.65;11.93;;;;;;;9.82;60.23;98918.45;1756934;81;21491;-37
2021/10/21 05:13:57;;;;;;;17.60;11.08;;;;;;;9.83;60.28;98911.08;1756680;81;21021;-37
2021/10/21 05:16:23;;;;;;;16.57;11.35;;;;;;;9.84;60.27;98921.55;1756543;81;21168;-37
2021/10/21 05:18:49;;;;;;;14.87;11.25;;;;;;;9.86;60.24;98916.56;1757154;81;21011;-37
2021/10/21 05:21:16;;;;;;;17.98;10.85;;;;;;;9.87;60.23;98912.72;1752046;81;20973;-37
2021/10/21 05:23:43;;;;;;;21.65;11.85;;;;;;;9.89;60.21;98919.89;1743713;82;20945;-37
2021/10/21 05:26:09;;;;;;;15.72;11.40;;;;;;;9.90;60.23;98919.31;1743908;82;21056;-37
2021/10/21 05:28:36;;;;;;;15.58;11.33;;;;;;;9.92;60.20;98921.09;1743692;82;21864;-37
2021/10/21 05:31:02;;;;;;;17.32;11.50;;;;;;;9.95;60.24;98923.06;1743703;82;20902;-37
2021/10/21 05:33:34;;;;;;;20.23;11.80;;;;;;;9.96;60.17;98917.86;1743207;82;20943;-37
2021/10/21 05:35:58;;;;;;;17.85;11.60;;;;;;;9.97;60.20;98922.89;1743250;82;20968;-37
2021/10/21 05:38:26;;;;;;;17.95;11.33;;;;;;;9.98;60.22;98919.05;1743013;82;20997;-37
2021/10/21 05:40:53;;;;;;;17.75;11.53;;;;;;;10.00;60.19;98922.19;1743345;82;21276;-37
2021/10/21 05:43:22;;;;;;;18.05;11.00;;;;;;;10.03;60.17;98914.67;1743203;82;20929;-37
2021/10/21 05:45:49;;;;;;;19.65;11.50;;;;;;;10.10;60.01;98915.34;1743342;82;21009;-37
2021/10/21 05:48:16;;;;;;;16.75;10.98;;;;;;;10.20;59.72;98904.48;1746517;80;21004;-37
2021/10/21 05:50:44;;;;;;;18.67;11.95;;;;;;;10.23;59.64;98910.50;1774073;80;21464;-37
2021/10/21 05:53:11;;;;;;;18.67;11.28;;;;;;;10.24;59.59;98911.50;1774323;80;21137;-37
2021/10/21 05:55:38;;;;;;;16.37;11.48;;;;;;;10.27;59.52;98908.62;1774054;80;21527;-37
2021/10/21 05:58:05;;;;;;;17.98;10.90;;;;;;;10.31;59.46;98910.82;1774173;80;20950;-37
2021/10/21 06:00:32;;;;;;;18.85;12.00;;;;;;;10.33;59.22;98909.86;1773961;80;21509;-37
2021/10/21 06:02:58;;;;;;;16.67;12.23;;;;;;;10.35;59.14;98906.22;1774140;80;21002;-37
2021/10/21 06:05:25;;;;;;;16.73;11.12;;;;;;;10.35;59.24;98907.00;1773715;80;21079;-37
2021/10/21 06:07:54;;;;;;;18.30;11.75;;;;;;;10.37;59.21;98910.11;1773793;80;21010;-37
2021/10/21 06:10:21;;;;;;;18.17;11.70;;;;;;;10.38;59.08;98905.47;1773922;80;21527;-37
2021/10/21 06:12:50;;;;;;;15.10;11.80;;;;;;;10.41;59.04;98904.16;1773740;80;21049;-37
2021/10/21 06:15:18;;;;;;;17.30;11.68;;;;;;;10.45;58.86;98906.36;1774067;80;21012;-37
2021/10/21 06:17:46;;;;;;;16.50;11.55;;;;;;;10.48;58.81;98902.11;1773650;80;21020;-37
2021/10/21 06:20:14;;;;;;;14.85;11.20;;;;;;;10.52;58.80;98905.64;1773862;80;21006;-37
2021/10/21 06:22:42;;;;;;;;;;;;;;;10.57;58.75;98913.45;1783284;80;20945;-37
2021/10/21 06:25:10;;;;;;;15.15;10.80;;;;;;;10.63;58.65;98918.75;1782508;80;20163;-37
2021/10/21 06:27:38;;;;;;;14.63;11.20;;;;;;;10.58;58.77;98905.52;1782286;80;21542;-37
2021/10/21 06:30:07;;;;;;;15.55;12.40;;;;;;;10.70;58.57;98912.61;1782373;80;21133;-37
2021/10/21 06:32:34;;;;;;;15.98;10.90;;;;;;;10.78;58.25;98917.77;1782272;80;21566;-37
2021/10/21 06:35:01;;;;;;;17.17;10.65;;;;;;;10.87;58.04;98918.23;1782485;80;20980;-37
2021/10/21 06:37:28;;;;;;;14.20;11.22;;;;;;;10.97;57.96;98909.23;1782450;80;21069;-37
2021/10/21 06:39:55;;;;;;;15.13;11.05;;;;;;;11.07;57.80;98907.98;1782326;80;21617;-37
2021/10/21 06:42:23;;;;;;;15.80;11.08;;;;;;;11.18;57.10;98908.84;1782213;80;21107;-37
2021/10/21 06:44:51;;;;;;;15.78;10.75;;;;;;;11.29;56.79;98902.16;1782271;80;21005;-38
2021/10/21 06:47:18;;;;;;;13.78;10.43;;;;;;;11.40;56.66;98908.45;1782303;80;21029;-37
2021/10/21 06:49:44;;;;;;;13.85;10.93;;;;;;;11.52;56.33;98912.83;1782518;80;21029;-37
2021/10/21 06:52:11;;;;;;;14.55;10.95;;;;;;;11.62;56.05;98910.17;1782573;80;21262;-37
2021/10/21 06:54:38;;;;;;;13.70;10.30;;;;;;;11.74;56.06;98917.28;1782545;80;22005;-37
2021/10/21 06:57:04;;;;;;;13.80;10.65;;;;;;;11.84;55.46;98908.42;1782529;80;20984;-37
2021/10/21 06:59:31;;;;;;;15.25;11.48;;;;;;;11.93;54.78;98917.59;1782539;80;21084;-37
2021/10/21 07:01:57;;;;;;;16.17;11.08;;;;;;;12.01;54.66;98905.60;1782526;80;21076;-37
2021/10/21 07:04:25;;;;;;;15.80;11.18;;;;;;;12.08;54.25;98909.73;1782577;80;20988;-37
2021/10/21 07:06:52;;;;;;;17.37;10.08;;;;;;;12.16;54.45;98903.95;1782633;80;21698;-37
2021/10/21 07:09:19;;;;;;;20.48;10.78;;;;;;;12.23;53.99;98898.35;1782358;80;21591;-37
2021/10/21 07:11:45;;;;;;;17.80;10.55;;;;;;;12.30;53.50;98897.80;1782397;80;20969;-37
2021/10/21 07:14:12;;;;;;;14.23;10.53;;;;;;;12.34;53.36;98895.11;1782485;80;20969;-37
2021/10/21 07:16:38;;;;;;;14.68;10.03;;;;;;;12.37;53.22;98887.55;1782308;80;21025;-37
2021/10/21 07:19:06;;;;;;;15.00;10.72;;;;;;;12.41;53.06;98897.84;1782377;80;21180;-37
2021/10/21 07:21:32;;;;;;;17.95;10.03;;;;;;;12.45;53.13;98881.74;1771561;80;21581;-37
2021/10/21 07:23:59;;;;;;;17.55;11.00;;;;;;;12.53;53.11;98890.14;1768509;80;21000;-37
2021/10/21 07:26:26;;;;;;;17.12;10.55;;;;;;;12.60;52.45;98886.65;1773801;80;20981;-37
2021/10/21 07:28:53;;;;;;;15.18;10.15;;;;;;;12.64;52.53;98880.63;1773948;80;21028;-37
2021/10/21 07:31:21;;;;;;;12.85;9.33;;;;;;;12.70;52.47;98889.20;1773621;80;21187;-37
2021/10/21 07:33:47;;;;;;;24.23;10.98;;;;;;;12.71;52.44;98887.47;1773882;80;21021;-37
2021/10/21 07:36:14;;;;;;;13.32;10.20;;;;;;;12.76;52.34;98886.31;1767950;80;21012;-37
2021/10/21 07:38:41;;;;;;;15.72;10.63;;;;;;;12.79;52.04;98881.45;1773726;80;21519;-37
2021/10/21 07:41:08;;;;;;;16.67;10.63;;;;;;;12.83;51.95;98879.54;1773832;80;21088;-36
2021/10/21 07:43:37;;;;;;;18.92;11.03;;;;;;;12.86;51.79;98881.48;1773869;80;21882;-37
2021/10/21 07:46:05;;;;;;;27.17;11.55;;;;;;;12.88;51.59;98878.55;1773790;80;21016;-37
2021/10/21 07:48:32;;;;;;;13.32;9.90;;;;;;;12.92;51.69;98879.94;1773801;80;20969;-37
2021/10/21 07:50:58;;;;;;;16.23;10.28;;;;;;;12.94;51.83;98867.49;1773791;80;21460;-37
2021/10/21 07:53:27;;;;;;;19.10;11.73;;;;;;;13.01;51.47;98869.45;1773804;80;21001;-37
2021/10/21 07:55:54;;;;;;;15.88;8.70;;;;;;;13.07;51.41;98858.36;1774186;80;21102;-38
2021/10/21 07:58:21;;;;;;;18.80;11.12;;;;;;;13.12;51.47;98855.28;1773675;80;21017;-37
2021/10/21 08:00:49;;;;;;;24.10;11.57;;;;;;;13.17;51.09;98852.17;1773833;80;20969;-37
2021/10/21 08:03:15;;;;;;;14.20;10.48;;;;;;;13.24;50.94;98846.75;1773838;80;21518;-37
2021/10/21 08:05:42;;;;;;;23.57;10.38;;;;;;;13.30;50.86;98837.03;1752075;80;21044;-37
2021/10/21 08:08:09;;;;;;;13.58;10.30;;;;;;;13.41;50.70;98843.80;1774111;80;21965;-37
2021/10/21 08:10:36;;;;;;;15.13;9.65;;;;;;;13.51;50.10;98841.66;1773912;80;20902;-37
2021/10/21 08:13:04;;;;;;;19.27;9.93;;;;;;;13.61;49.68;98836.78;1774092;80;21538;-37
2021/10/21 08:15:31;;;;;;;17.73;9.45;;;;;;;13.71;49.37;98825.67;1773956;80;21019;-38
2021/10/21 08:17:59;;;;;;;11.50;9.30;;;;;;;13.81;48.84;98822.14;1774002;80;20969;-37
2021/10/21 08:20:27;;;;;;;14.47;9.13;;;;;;;13.91;48.71;98820.76;1773971;80;21147;-37
2021/10/21 08:22:54;;;;;;;16.00;9.53;;;;;;;14.02;48.75;98816.64;1773913;80;21518;-37
2021/10/21 08:25:25;;;;;;;14.98;9.63;;;;;;;14.17;48.72;98811.91;1773939;80;21064;-37
2021/10/21 08:27:50;;;;;;;18.98;9.63;;;;;;;14.38;48.19;98802.88;1774141;80;21460;-37
2021/10/21 08:30:19;;;;;;;14.63;9.25;;;;;;;14.59;47.27;98798.06;1752093;80;21052;-38
2021/10/21 08:32:45;;;;;;;17.42;9.53;;;;;;;14.78;46.95;98794.04;1773876;80;21149;-37
2021/10/21 08:35:15;;;;;;;13.38;9.48;;;;;;;14.99;46.00;98789.02;1773773;80;20981;-38
2021/10/21 08:37:43;;;;;;;14.98;8.95;;;;;;;15.17;45.71;98793.14;1773935;80;21525;-37
2021/10/21 08:40:11;;;;;;;15.13;8.78;;;;;;;15.34;44.86;98794.17;1773900;80;21025;-37
2021/10/21 08:42:38;;;;;;;14.23;9.03;;;;;;;15.47;44.90;98788.38;1773879;80;21496;-37
2021/10/21 08:45:07;;;;;;;14.05;8.78;;;;;;;15.63;44.30;98779.08;1773636;80;21210;-38
2021/10/21 08:47:34;;;;;;;14.73;9.33;;;;;;;15.77;44.17;98778.14;1751833;80;20988;-38
2021/10/21 08:50:03;;;;;;;12.58;9.53;;;;;;;15.97;44.63;98772.25;1774018;80;21838;-37
2021/10/21 08:52:29;;;;;;;15.30;9.45;;;;;;;16.20;44.00;98763.94;1773792;80;21519;-38
2021/10/21 08:54:56;;;;;;;13.13;8.75;;;;;;;16.37;43.20;98768.38;1774093;80;21045;-38
2021/10/21 08:57:23;;;;;;;19.00;9.05;;;;;;;16.51;42.49;98762.70;1773872;80;21128;-37
2021/10/21 08:59:49;;;;;;;12.33;8.90;;;;;;;16.55;41.80;98757.98;1773677;80;21069;-37
2021/10/21 09:02:33;;;;;;;14.38;8.90;;;;;;;16.56;41.99;98750.52;1773827;80;21459;-38
2021/10/21 09:10:11;;;;;;;11.35;8.75;;;;;;;16.66;42.39;98727.72;1774309;80;21149;-38
2021/10/21 09:12:43;;;;;;;13.98;9.25;;;;;;;16.71;41.58;98718.45;1774007;80;21538;-38
2021/10/21 09:15:16;;;;;;;9.85;8.55;;;;;;;16.77;41.76;98729.11;1773970;80;20969;-37
2021/10/21 09:17:45;;;;;;;14.68;9.15;;;;;;;16.80;42.00;98722.80;1773869;80;21017;-38
2021/10/21 09:20:39;;;;;;;12.53;8.50;;;;;;;16.90;42.03;98719.11;1773913;80;21516;-38
2021/10/21 09:23:10;;;;;;;17.42;9.25;;;;;;;17.04;41.56;98713.23;1774044;80;21540;-37
2021/10/21 09:25:38;;;;;;;16.85;9.35;;;;;;;17.15;41.44;98708.31;1773415;80;20969;-38
2021/10/21 09:28:25;;;;;;;20.12;10.50;;;;;;;17.29;40.89;98708.05;1773865;80;21511;-38
2021/10/21 09:31:05;;;;;;;15.40;8.05;;;;;;;17.39;40.75;98701.60;1773990;80;21519;-38
2021/10/21 09:33:56;;;;;;;14.20;8.35;;;;;;;17.49;40.72;98707.48;1773834;80;21037;-38
2021/10/21 09:36:22;;;;;;;12.50;8.20;;;;;;;17.63;40.30;98703.70;1773960;80;21798;-38
2021/10/21 09:38:56;;;;;;;10.00;7.87;;;;;;;17.74;39.97;98692.72;1774037;80;21010;-38
2021/10/21 09:41:28;;;;;;;13.40;8.98;;;;;;;17.83;40.09;98696.84;1773892;80;20961;-37
2021/10/21 09:43:55;;;;;;;12.47;8.83;;;;;;;17.86;39.79;98685.82;1773737;80;21100;-38
2021/10/21 09:46:41;;;;;;;11.95;8.50;;;;;;;17.88;39.56;98684.00;1773883;80;21044;-38
2021/10/21 09:49:33;;;;;;;11.97;8.93;;;;;;;17.87;39.53;98676.97;1774118;80;21121;-38
2021/10/21 09:52:04;;;;;;;11.03;8.63;;;;;;;17.85;39.44;98683.49;1773785;80;21580;-38
2021/10/21 09:54:31;;;;;;;11.38;8.33;;;;;;;17.96;39.74;98674.45;1773879;80;20954;-38
2021/10/21 09:57:03;;;;;;;10.08;8.63;;;;;;;18.20;39.04;98671.75;1774071;80;20981;-38
2021/10/21 09:59:36;;;;;;;20.45;9.75;;;;;;;18.45;38.02;98679.38;1773881;80;21045;-38
2021/10/21 10:02:15;;;;;;;12.35;8.93;;;;;;;18.66;37.78;98667.32;1774015;80;21198;-38
2021/10/21 10:04:43;;;;;;;14.53;9.58;;;;;;;18.85;37.71;98661.55;1773659;80;20962;-38
2021/10/21 10:07:14;;;;;;;16.73;9.05;;;;;;;19.03;37.14;98652.23;1774098;80;21527;-38
2021/10/21 10:09:40;;;;;;;18.60;9.85;;;;;;;19.20;36.74;98640.61;1773896;80;20994;-38
2021/10/21 10:12:08;;;;;;;15.32;9.78;;;;;;;19.35;36.60;98634.89;1773970;80;21508;-38
2021/10/21 10:14:44;;;;;;;13.72;9.50;;;;;;;19.50;36.38;98626.44;1773985;80;21135;-38
2021/10/21 10:17:15;;;;;;;16.77;10.60;;;;;;;19.57;36.90;98617.80;1773928;80;21037;-38
2021/10/21 10:19:45;;;;;;;17.67;10.15;;;;;;;19.63;36.27;98611.94;1773886;80;20953;-38
2021/10/21 10:22:32;;;;;;;20.70;9.40;;;;;;;19.65;36.15;98606.78;1774214;80;21080;-38
2021/10/21 10:24:58;;;;;;;16.62;9.58;;;;;;;19.68;36.04;98612.16;1745338;80;21001;-38
2021/10/21 10:27:32;;;;;;;12.75;8.43;;;;;;;19.71;35.68;98622.28;1744917;80;21174;-38
2021/10/21 10:30:01;;;;;;;14.40;8.83;;;;;;;19.69;35.59;98599.95;1781977;80;21016;-38
2021/10/21 10:32:43;;;;;;;11.43;8.63;;;;;;;19.65;35.37;98601.28;1782326;80;21492;-38
2021/10/21 10:35:12;;;;;;;8.60;7.53;;;;;;;19.61;34.95;98597.23;1782133;80;21001;-38
2021/10/21 10:37:46;;;;;;;12.68;8.23;;;;;;;19.63;35.24;98600.94;1780498;80;21043;-38
2021/10/21 10:40:14;;;;;;;12.75;8.40;;;;;;;19.69;34.73;98586.81;1782545;80;21116;-38
2021/10/21 10:42:46;;;;;;;9.88;7.90;;;;;;;19.76;34.94;98574.20;1782298;80;20953;-39
2021/10/21 10:45:14;;;;;;;11.55;8.45;;;;;;;19.84;35.23;98570.05;1782352;80;20972;-38
2021/10/21 10:47:58;;;;;;;11.38;7.53;;;;;;;19.96;35.22;98573.38;1782482;80;21029;-38
2021/10/21 10:50:25;;;;;;;;;;;;;;;20.04;34.87;98578.84;1783881;80;21060;-38
2021/10/21 10:53:06;;;;;;;14.07;8.50;;;;;;;20.07;34.30;98575.80;1782460;80;20472;-38
2021/10/21 10:55:46;;;;;;;13.83;9.70;;;;;;;19.99;34.82;98572.52;1782438;80;20964;-38
2021/10/21 10:58:17;;;;;;;13.65;9.33;;;;;;;20.05;35.17;98568.58;1782474;80;21265;-38
2021/10/21 11:00:54;;;;;;;11.97;9.08;;;;;;;20.06;35.24;98577.78;1782410;80;20957;-39
2021/10/21 11:03:39;;;;;;;13.00;9.30;;;;;;;20.05;35.34;98569.35;1782474;80;20997;-39
2021/10/21 11:06:16;;;;;;;10.45;8.48;;;;;;;19.98;35.13;98575.09;1782337;80;21115;-38
2021/10/21 11:08:53;;;;;;;13.32;9.38;;;;;;;19.86;35.09;98578.61;1782434;80;21028;-38
2021/10/21 11:12:01;;;;;;;13.30;9.35;;;;;;;19.62;35.35;98567.77;1782214;80;21645;-38
2021/10/21 11:14:39;;;;;;;13.65;8.98;;;;;;;19.36;35.78;98569.70;1782004;80;20898;-38
2021/10/21 11:17:09;;;;;;;11.53;8.35;;;;;;;19.08;36.34;98563.02;1782490;80;20992;-38
2021/10/21 11:19:48;;;;;;;15.65;9.28;;;;;;;18.90;37.05;98555.88;1782223;80;21909;-38
2021/10/21 11:22:35;;;;;;;12.95;9.78;;;;;;;18.85;36.97;98550.92;1781997;80;22046;-38
2021/10/21 11:25:08;;;;;;;30.45;16.45;;;;;;;18.81;37.02;98544.76;1782212;80;21506;-39
2021/10/21 11:27:40;;;;;;;17.82;10.80;;;;;;;18.69;37.34;98545.50;1782000;80;21860;-38
2021/10/21 11:30:28;;;;;;;15.32;10.90;;;;;;;18.60;37.76;98535.89;1782182;80;21065;-38
2021/10/21 11:32:59;;;;;;;14.33;10.45;;;;;;;18.49;37.97;98529.87;1782165;80;22335;-38
2021/10/21 11:35:29;;;;;;;13.83;10.15;;;;;;;18.33;38.76;98527.17;1782055;80;20933;-38
2021/10/21 11:38:02;;;;;;;16.62;11.48;;;;;;;18.25;39.21;98523.05;1782132;80;21020;-38